Airfield :
LOGIN :

Register | Disclaimer

   EN    FR    IT 

 










Legend :    VFR   Marginal VFR   IFR   Intensive IFR   Very Intensive IFR
Visi :
Ceiling :
>= 8 km
>= 3000ft
5 to 8 km
1000 to 3000 ft
1500m to 5 km
500 to 1000 ft
800 to 1500m
200 to 500 ft
< 800m
< 200 ft
Symbols :   Thunderstorms  Fog  Heavy snow  Heavy precipitations  Wind > 20 kt
SIGMETs :     Misc.  Thunderstorms  Icing  Turbulence  Mountain Waves  Volcanic Ashes







- Airport Elevation : 1487 ft
- IATA code : MUC


EDDM - München Franz Josef Strauss

CURRENT METAR :
  • 220020Z 26009KT 9000 RA FEW007 SCT012 OVC045 10/08 Q1020 TEMPO BKN012

EXPIRED METARs :
  • 212350Z 26012KT 8000 RA FEW007 SCT014 OVC050 10/09 Q1020 TEMPO BKN014
  • 212320Z 26008KT 9999 -RA FEW016 BKN037 OVC044 12/08 Q1019 TEMPO RA
  • 212250Z 29011KT 260V320 9999 FEW020 OVC035 12/07 Q1017 TEMPO RA
  • 212220Z 30009KT 9999 FEW011 BKN027 12/09 Q1017 NOSIG
  • 212150Z 31013KT 9999 FEW012 BKN035 BKN060 13/10 Q1017 NOSIG

TAF TAF EDDM
Valid from the 22 at 00:00 until the 23 at 06:00 UTC


212300Z 2200/2306 28012KT 9999 BKN030
TEMPO 2200/2203 29015G25KT RA BKN012
PROB30
TEMPO 2209/2215 27015G25KT
PROB30
TEMPO 2215/2220 27015G25KT SHRA BKN025TCU
BECMG 2218/2220 26007KT
TEMPO 2300/2306 BKN012
No reported NOTAMs for that airfield.



MET'MAP, your aeronautical weather chart ! - Copyright ORBIFLY December 2007 - Disclaimer

ORBIFLY MET'MAP TEAM :

Programming & Development : Alexandra Zaïnal
Concept & Development : Baudouin d'Aumeries
Co-Development & Prog : Marc-Olivier Méhu
Technical & hardware support : Manuel Goepfert

Contact : metmap@orbifly.com




SOURCES & CREDITS :

   NOAA